Sault Ste Marie, MI (49783)

10:53 PM EST on January 23, 2017 (GMT -0500)
Sault Ste Marie Municipal / Sanderson Field | | Change Station

Elev 715 ft 46.48 °N, 84.37 °W | Updated 51 minutes ago

Rain
Rain Mist
35 °F
Feels Like 32 °F
N
4
Wind Variable Wind from East

Today
High -- | Low -- °F
--% Chance of Precip.
Yesterday
High -- | Low -- °F
Precip. -- in
Pressure 29.79 in
Visibility 4.0 miles
Clouds Overcast 700 ft
Windchill 32 °F
Dew Point 34 °F
Humidity 96%
Rainfall 0.12 in
Snow Depth Not available.
8:10 AM 5:28 PM
Waning Crescent, 14% visible
SPECI KANJ 240302Z AUTO 10003KT 4SM RA BR OVC007 02/01 A2979 RMK AO2 P0002 T00170011
Pressure 29.79 in
Visibility 4.0 miles
Clouds Overcast 700 ft
Windchill 32 °F
Dew Point 34 °F
Humidity 96%
Rainfall 0.12 in
Snow Depth Not available.
8:10 AM 5:28 PM
Waning Crescent, 14% visible
SPECI KANJ 240302Z AUTO 10003KT 4SM RA BR OVC007 02/01 A2979 RMK AO2 P0002 T00170011

Get Your Daily Forecast Email!

Thanks for signing up!

Be on the lookout for a verification email in your inbox.

You'll start receiving the daily forecast at 8 AM.

×

10-Day Weather Forecast

Almanac

Astronomy

Jan. 23, 2017 Rise Set
Actual Time
Civil Twilight
Nautical Twilight
Astronomical Twilight
Moon
Length of Visible Light
Length of Day
Tomorrow will be .
, % of the Moon is Illuminated

Today's Extremes

State Highs State Lows

Community

WunderPhotos

Upload Photos

1,962,540 photos uploaded!

WunderBlog® & News

Nearby

Air Quality

  Air Quality AQ Index Pollutant
Not available.

Snow Depth

Station Depth Elevation

Earthquake Activity

City Distance Mag. Time & Date
Minimum magnitude displayed is 2.5.

Coastal Water Temperatures

Place Temperature

Stations

Nearby Weather Stations

Station Location Temp. Windchill Dew Point Humidity Wind Precip. Elev Updated Type
                   

Watches & Warnings

There are currently no watches in effect.